sensor_id;sensor_type;location;lat;lon;timestamp;pressure;altitude;pressure_sealevel;temperature;humidity
80733;BME280;70130;44.534;18.678;2023-09-19T00:00:47;98729.28;;;21.36;70.33
80733;BME280;70130;44.534;18.678;2023-09-19T00:03:16;98733.97;;;21.35;70.64
80733;BME280;70130;44.534;18.678;2023-09-19T00:05:45;98719.19;;;21.29;70.76
80733;BME280;70130;44.534;18.678;2023-09-19T00:08:11;98723.84;;;21.32;70.70
80733;BME280;70130;44.534;18.678;2023-09-19T00:10:38;98721.09;;;21.36;70.31
80733;BME280;70130;44.534;18.678;2023-09-19T00:13:06;98721.50;;;21.34;70.46
80733;BME280;70130;44.534;18.678;2023-09-19T00:15:38;98717.22;;;21.33;70.81
80733;BME280;70130;44.534;18.678;2023-09-19T00:18:04;98718.38;;;21.32;70.90
80733;BME280;70130;44.534;18.678;2023-09-19T00:20:37;98715.31;;;21.27;71.02
80733;BME280;70130;44.534;18.678;2023-09-19T00:23:04;98718.44;;;21.25;71.33
80733;BME280;70130;44.534;18.678;2023-09-19T00:25:37;98714.16;;;21.24;71.16
80733;BME280;70130;44.534;18.678;2023-09-19T00:28:04;98699.34;;;21.25;71.35
80733;BME280;70130;44.534;18.678;2023-09-19T00:30:30;98705.97;;;21.24;71.05
80733;BME280;70130;44.534;18.678;2023-09-19T00:32:59;98694.31;;;21.17;71.60
80733;BME280;70130;44.534;18.678;2023-09-19T00:35:26;98701.75;;;21.16;71.58
80733;BME280;70130;44.534;18.678;2023-09-19T00:37:56;98697.06;;;21.13;72.03
80733;BME280;70130;44.534;18.678;2023-09-19T00:40:24;98688.88;;;21.13;71.67
80733;BME280;70130;44.534;18.678;2023-09-19T00:42:57;98689.69;;;21.10;72.08
80733;BME280;70130;44.534;18.678;2023-09-19T00:45:28;98691.63;;;21.09;71.82
80733;BME280;70130;44.534;18.678;2023-09-19T00:47:54;98692.41;;;21.10;72.16
80733;BME280;70130;44.534;18.678;2023-09-19T00:50:24;98678.81;;;21.03;72.29
80733;BME280;70130;44.534;18.678;2023-09-19T00:52:54;98681.13;;;21.08;72.01
80733;BME280;70130;44.534;18.678;2023-09-19T00:55:23;98679.94;;;21.09;71.87
80733;BME280;70130;44.534;18.678;2023-09-19T00:57:52;98679.16;;;21.08;71.76
80733;BME280;70130;44.534;18.678;2023-09-19T01:00:20;98678.03;;;21.06;71.60
80733;BME280;70130;44.534;18.678;2023-09-19T01:02:50;98672.19;;;21.04;72.06
80733;BME280;70130;44.534;18.678;2023-09-19T01:05:18;98679.97;;;21.05;71.83
80733;BME280;70130;44.534;18.678;2023-09-19T01:07:47;98678.03;;;21.02;72.10
80733;BME280;70130;44.534;18.678;2023-09-19T01:10:17;98682.44;;;20.82;73.09
80733;BME280;70130;44.534;18.678;2023-09-19T01:16:13;98678.13;;;20.88;73.00
80733;BME280;70130;44.534;18.678;2023-09-19T01:18:54;98672.72;;;20.85;73.13
80733;BME280;70130;44.534;18.678;2023-09-19T01:24:16;98676.19;;;20.89;73.20
80733;BME280;70130;44.534;18.678;2023-09-19T01:27:03;98670.38;;;20.83;73.32
80733;BME280;70130;44.534;18.678;2023-09-19T01:29:44;98676.50;;;20.98;72.67
80733;BME280;70130;44.534;18.678;2023-09-19T01:32:18;98680.81;;;20.95;72.34
80733;BME280;70130;44.534;18.678;2023-09-19T01:34:49;98674.59;;;20.95;72.44
80733;BME280;70130;44.534;18.678;2023-09-19T01:37:16;98680.41;;;20.97;72.41
80733;BME280;70130;44.534;18.678;2023-09-19T01:39:47;98685.88;;;20.97;72.44
80733;BME280;70130;44.534;18.678;2023-09-19T01:51:03;98683.53;;;20.99;72.39
80733;BME280;70130;44.534;18.678;2023-09-19T01:53:57;98680.41;;;21.00;72.15
80733;BME280;70130;44.534;18.678;2023-09-19T01:56:37;98675.75;;;20.94;72.74
80733;BME280;70130;44.534;18.678;2023-09-19T01:59:14;98673.41;;;20.96;72.50
80733;BME280;70130;44.534;18.678;2023-09-19T02:01:45;98663.69;;;20.95;72.91
80733;BME280;70130;44.534;18.678;2023-09-19T02:04:14;98665.66;;;20.91;72.86
80733;BME280;70130;44.534;18.678;2023-09-19T02:06:43;98676.56;;;20.91;73.03
80733;BME280;70130;44.534;18.678;2023-09-19T02:09:12;98666.84;;;20.90;73.07
80733;BME280;70130;44.534;18.678;2023-09-19T02:11:38;98669.56;;;20.90;73.13
80733;BME280;70130;44.534;18.678;2023-09-19T02:14:04;98664.53;;;20.85;73.44
80733;BME280;70130;44.534;18.678;2023-09-19T02:16:34;98660.69;;;20.75;73.65
80733;BME280;70130;44.534;18.678;2023-09-19T02:19:02;98671.28;;;20.66;74.64
80733;BME280;70130;44.534;18.678;2023-09-19T02:21:31;98678.25;;;20.71;74.02
80733;BME280;70130;44.534;18.678;2023-09-19T02:24:00;98677.44;;;20.74;74.04
80733;BME280;70130;44.534;18.678;2023-09-19T02:26:26;98674.41;;;20.61;74.49
80733;BME280;70130;44.534;18.678;2023-09-19T02:28:55;98666.97;;;20.72;73.87
80733;BME280;70130;44.534;18.678;2023-09-19T02:31:24;98674.41;;;20.61;74.69
80733;BME280;70130;44.534;18.678;2023-09-19T02:33:52;98674.78;;;20.66;74.41
80733;BME280;70130;44.534;18.678;2023-09-19T02:36:18;98672.06;;;20.66;73.96
80733;BME280;70130;44.534;18.678;2023-09-19T02:38:43;98679.47;;;20.59;74.73
80733;BME280;70130;44.534;18.678;2023-09-19T02:41:12;98674.00;;;20.62;74.53
80733;BME280;70130;44.534;18.678;2023-09-19T02:43:37;98677.13;;;20.57;74.61
80733;BME280;70130;44.534;18.678;2023-09-19T02:46:03;98675.28;;;20.47;74.64
80733;BME280;70130;44.534;18.678;2023-09-19T02:48:29;98680.31;;;20.45;75.25
80733;BME280;70130;44.534;18.678;2023-09-19T02:50:54;98686.97;;;20.30;76.06
80733;BME280;70130;44.534;18.678;2023-09-19T02:53:20;98672.94;;;20.39;75.20
80733;BME280;70130;44.534;18.678;2023-09-19T02:55:47;98675.25;;;20.44;75.10
80733;BME280;70130;44.534;18.678;2023-09-19T02:58:13;98672.19;;;20.42;75.20
80733;BME280;70130;44.534;18.678;2023-09-19T03:00:40;98679.94;;;20.43;75.39
80733;BME280;70130;44.534;18.678;2023-09-19T03:03:08;98678.78;;;20.44;75.17
80733;BME280;70130;44.534;18.678;2023-09-19T03:05:37;98679.19;;;20.39;75.64
80733;BME280;70130;44.534;18.678;2023-09-19T03:08:06;98685.41;;;20.29;75.92
80733;BME280;70130;44.534;18.678;2023-09-19T03:10:35;98681.94;;;20.32;76.01
80733;BME280;70130;44.534;18.678;2023-09-19T03:13:03;98685.03;;;20.34;75.83
80733;BME280;70130;44.534;18.678;2023-09-19T03:15:29;98703.34;;;20.23;76.28
80733;BME280;70130;44.534;18.678;2023-09-19T03:17:57;98699.47;;;20.13;76.53
80733;BME280;70130;44.534;18.678;2023-09-19T03:20:28;98696.34;;;20.18;76.57
80733;BME280;70130;44.534;18.678;2023-09-19T03:22:53;98691.28;;;20.20;76.54
80733;BME280;70130;44.534;18.678;2023-09-19T03:25:20;98694.41;;;20.22;76.46
80733;BME280;70130;44.534;18.678;2023-09-19T03:27:49;98684.69;;;20.18;76.38
80733;BME280;70130;44.534;18.678;2023-09-19T03:30:18;98687.41;;;20.18;76.11
80733;BME280;70130;44.534;18.678;2023-09-19T03:32:45;98688.59;;;20.17;76.73
80733;BME280;70130;44.534;18.678;2023-09-19T03:35:12;98683.13;;;20.13;76.77
80733;BME280;70130;44.534;18.678;2023-09-19T03:37:41;98690.16;;;20.11;76.87
80733;BME280;70130;44.534;18.678;2023-09-19T03:40:10;98690.97;;;20.01;77.36
80733;BME280;70130;44.534;18.678;2023-09-19T03:42:41;98681.69;;;19.80;78.14
80733;BME280;70130;44.534;18.678;2023-09-19T03:45:08;98692.16;;;19.86;78.00
80733;BME280;70130;44.534;18.678;2023-09-19T03:47:57;98692.16;;;19.78;78.24
80733;BME280;70130;44.534;18.678;2023-09-19T03:50:27;98685.19;;;19.74;78.40
80733;BME280;70130;44.534;18.678;2023-09-19T03:52:56;98690.22;;;19.79;78.34
80733;BME280;70130;44.534;18.678;2023-09-19T03:55:25;98684.00;;;19.78;78.21
80733;BME280;70130;44.534;18.678;2023-09-19T03:57:56;98685.56;;;19.79;78.44
80733;BME280;70130;44.534;18.678;2023-09-19T04:00:24;98689.47;;;19.64;78.68
80733;BME280;70130;44.534;18.678;2023-09-19T04:02:54;98690.66;;;19.56;78.95
80733;BME280;70130;44.534;18.678;2023-09-19T04:05:22;98686.38;;;19.55;78.76
80733;BME280;70130;44.534;18.678;2023-09-19T04:07:48;98695.31;;;19.59;78.67
80733;BME280;70130;44.534;18.678;2023-09-19T04:10:14;98697.28;;;19.55;79.09
80733;BME280;70130;44.534;18.678;2023-09-19T04:12:55;98685.63;;;19.51;79.03
80733;BME280;70130;44.534;18.678;2023-09-19T04:15:22;98699.22;;;19.51;79.24
80733;BME280;70130;44.534;18.678;2023-09-19T04:17:50;98697.25;;;19.34;79.90
80733;BME280;70130;44.534;18.678;2023-09-19T04:20:19;98695.69;;;19.29;80.34
80733;BME280;70130;44.534;18.678;2023-09-19T04:22:50;98702.31;;;19.32;80.07
80733;BME280;70130;44.534;18.678;2023-09-19T04:25:16;98697.25;;;19.27;80.12
80733;BME280;70130;44.534;18.678;2023-09-19T04:27:44;98694.50;;;19.34;79.98
80733;BME280;70130;44.534;18.678;2023-09-19T04:30:13;98703.47;;;19.38;79.62
80733;BME280;70130;44.534;18.678;2023-09-19T04:32:40;98701.53;;;19.42;79.58
80733;BME280;70130;44.534;18.678;2023-09-19T04:35:10;98705.78;;;19.39;79.92
80733;BME280;70130;44.534;18.678;2023-09-19T04:37:40;98705.41;;;19.16;80.98
80733;BME280;70130;44.534;18.678;2023-09-19T04:40:10;98703.47;;;19.17;80.93
80733;BME280;70130;44.534;18.678;2023-09-19T04:42:44;98702.69;;;19.23;80.25
80733;BME280;70130;44.534;18.678;2023-09-19T04:45:14;98704.63;;;19.26;79.98
80733;BME280;70130;44.534;18.678;2023-09-19T04:47:40;98708.91;;;19.20;80.55
80733;BME280;70130;44.534;18.678;2023-09-19T04:50:09;98706.97;;;19.21;80.39
80733;BME280;70130;44.534;18.678;2023-09-19T04:52:42;98713.59;;;19.23;80.23
80733;BME280;70130;44.534;18.678;2023-09-19T04:55:16;98711.25;;;19.22;80.10
80733;BME280;70130;44.534;18.678;2023-09-19T04:57:48;98717.44;;;19.26;79.83
80733;BME280;70130;44.534;18.678;2023-09-19T05:00:15;98715.09;;;19.10;80.61
80733;BME280;70130;44.534;18.678;2023-09-19T05:02:42;98725.19;;;18.99;80.77
80733;BME280;70130;44.534;18.678;2023-09-19T05:05:09;98720.53;;;18.92;81.44
80733;BME280;70130;44.534;18.678;2023-09-19T05:07:36;98722.88;;;18.94;81.38
80733;BME280;70130;44.534;18.678;2023-09-19T05:10:02;98723.63;;;18.91;81.71
80733;BME280;70130;44.534;18.678;2023-09-19T05:12:33;98731.41;;;18.89;81.74
80733;BME280;70130;44.534;18.678;2023-09-19T05:14:59;98725.97;;;19.03;81.07
80733;BME280;70130;44.534;18.678;2023-09-19T05:17:25;98726.38;;;19.16;80.53
80733;BME280;70130;44.534;18.678;2023-09-19T05:19:50;98722.53;;;19.24;80.24
80733;BME280;70130;44.534;18.678;2023-09-19T05:22:16;98721.72;;;19.30;79.90
80733;BME280;70130;44.534;18.678;2023-09-19T05:24:44;98723.28;;;19.35;79.34
80733;BME280;70130;44.534;18.678;2023-09-19T05:27:16;98713.16;;;19.39;79.29
80733;BME280;70130;44.534;18.678;2023-09-19T05:29:46;98723.72;;;19.48;79.08
80733;BME280;70130;44.534;18.678;2023-09-19T05:32:12;98722.91;;;19.54;78.49
80733;BME280;70130;44.534;18.678;2023-09-19T05:34:38;98728.38;;;19.61;78.42
80733;BME280;70130;44.534;18.678;2023-09-19T05:37:04;98725.66;;;19.68;78.04
80733;BME280;70130;44.534;18.678;2023-09-19T05:39:33;98719.03;;;19.76;77.30
80733;BME280;70130;44.534;18.678;2023-09-19T05:42:06;98720.19;;;19.75;77.04
80733;BME280;70130;44.534;18.678;2023-09-19T05:44:35;98719.00;;;19.83;76.96
80733;BME280;70130;44.534;18.678;2023-09-19T05:47:02;98715.13;;;19.81;77.09
80733;BME280;70130;44.534;18.678;2023-09-19T05:49:28;98716.66;;;19.89;76.86
80733;BME280;70130;44.534;18.678;2023-09-19T05:51:53;98708.09;;;19.94;76.97
80733;BME280;70130;44.534;18.678;2023-09-19T05:54:20;98709.63;;;19.99;76.78
80733;BME280;70130;44.534;18.678;2023-09-19T05:56:46;98711.19;;;20.03;76.50
80733;BME280;70130;44.534;18.678;2023-09-19T05:59:12;98708.44;;;20.14;76.18
80733;BME280;70130;44.534;18.678;2023-09-19T06:01:42;98708.84;;;20.16;75.88
80733;BME280;70130;44.534;18.678;2023-09-19T06:04:08;98711.50;;;20.34;75.33
80733;BME280;70130;44.534;18.678;2023-09-19T06:06:33;98704.91;;;20.31;75.35
80733;BME280;70130;44.534;18.678;2023-09-19T06:09:04;98707.63;;;20.31;75.27
80733;BME280;70130;44.534;18.678;2023-09-19T06:11:35;98710.38;;;20.31;75.33
80733;BME280;70130;44.534;18.678;2023-09-19T06:14:01;98713.44;;;20.40;74.89
80733;BME280;70130;44.534;18.678;2023-09-19T06:16:28;98718.09;;;20.43;74.65
80733;BME280;70130;44.534;18.678;2023-09-19T06:18:54;98712.63;;;20.50;74.58
80733;BME280;70130;44.534;18.678;2023-09-19T06:21:24;98714.13;;;20.58;73.72
80733;BME280;70130;44.534;18.678;2023-09-19T06:23:49;98710.22;;;20.66;73.37
80733;BME280;70130;44.534;18.678;2023-09-19T06:26:15;98717.97;;;20.72;73.43
80733;BME280;70130;44.534;18.678;2023-09-19T06:28:40;98725.34;;;20.82;72.91
80733;BME280;70130;44.534;18.678;2023-09-19T06:31:08;98725.66;;;20.91;72.63
80733;BME280;70130;44.534;18.678;2023-09-19T06:33:38;98728.72;;;21.00;72.34
80733;BME280;70130;44.534;18.678;2023-09-19T06:36:07;98726.31;;;21.09;71.31
80733;BME280;70130;44.534;18.678;2023-09-19T06:38:33;98732.53;;;21.20;71.04
80733;BME280;70130;44.534;18.678;2023-09-19T06:41:02;98733.59;;;21.33;70.46
80733;BME280;70130;44.534;18.678;2023-09-19T06:43:32;98740.16;;;21.43;69.96
80733;BME280;70130;44.534;18.678;2023-09-19T06:46:00;98727.94;;;21.58;69.99
80733;BME280;70130;44.534;18.678;2023-09-19T06:48:26;98731.34;;;21.69;69.35
80733;BME280;70130;44.534;18.678;2023-09-19T06:50:56;98730.06;;;21.81;68.87
80733;BME280;70130;44.534;18.678;2023-09-19T06:53:24;98729.97;;;21.91;68.50
80733;BME280;70130;44.534;18.678;2023-09-19T06:55:52;98739.63;;;22.03;68.05
80733;BME280;70130;44.534;18.678;2023-09-19T06:58:18;98736.84;;;22.10;67.79
80733;BME280;70130;44.534;18.678;2023-09-19T07:00:47;98739.09;;;22.19;67.30
80733;BME280;70130;44.534;18.678;2023-09-19T07:03:13;98747.19;;;22.26;66.69
80733;BME280;70130;44.534;18.678;2023-09-19T07:05:41;98745.56;;;22.32;65.25
80733;BME280;70130;44.534;18.678;2023-09-19T07:08:09;98747.47;;;22.38;65.21
80733;BME280;70130;44.534;18.678;2023-09-19T07:10:36;98751.75;;;22.39;65.32
80733;BME280;70130;44.534;18.678;2023-09-19T07:13:05;98750.94;;;22.43;65.14
80733;BME280;70130;44.534;18.678;2023-09-19T07:15:34;98759.06;;;22.46;65.09
80733;BME280;70130;44.534;18.678;2023-09-19T07:18:04;98756.31;;;22.50;64.93
80733;BME280;70130;44.534;18.678;2023-09-19T07:20:31;98766.25;;;22.67;64.37
80733;BME280;70130;44.534;18.678;2023-09-19T07:22:58;98767.00;;;22.71;64.04
80733;BME280;70130;44.534;18.678;2023-09-19T07:25:27;98773.97;;;22.79;63.77
80733;BME280;70130;44.534;18.678;2023-09-19T07:27:55;98771.13;;;22.86;63.52
80733;BME280;70130;44.534;18.678;2023-09-19T07:30:21;98769.09;;;22.90;62.95
80733;BME280;70130;44.534;18.678;2023-09-19T07:32:47;98777.22;;;22.97;62.26
80733;BME280;70130;44.534;18.678;2023-09-19T07:35:13;98777.44;;;23.10;62.30
80733;BME280;70130;44.534;18.678;2023-09-19T07:37:40;98778.06;;;23.21;62.74
80733;BME280;70130;44.534;18.678;2023-09-19T07:40:06;98776.38;;;23.31;62.01
80733;BME280;70130;44.534;18.678;2023-09-19T07:42:35;98781.28;;;23.43;63.07
80733;BME280;70130;44.534;18.678;2023-09-19T07:45:02;98781.81;;;23.61;63.09
80733;BME280;70130;44.534;18.678;2023-09-19T07:47:28;98779.31;;;23.70;63.18
80733;BME280;70130;44.534;18.678;2023-09-19T07:49:55;98783.59;;;23.71;63.42
80733;BME280;70130;44.534;18.678;2023-09-19T07:52:21;98784.06;;;23.89;62.73
80733;BME280;70130;44.534;18.678;2023-09-19T07:54:48;98786.69;;;23.96;62.46
80733;BME280;70130;44.534;18.678;2023-09-19T07:57:16;98786.38;;;24.14;60.54
80733;BME280;70130;44.534;18.678;2023-09-19T07:59:41;98781.91;;;24.24;58.65
80733;BME280;70130;44.534;18.678;2023-09-19T08:02:12;98783.06;;;24.46;58.28
80733;BME280;70130;44.534;18.678;2023-09-19T08:04:48;98787.63;;;24.52;60.02
80733;BME280;70130;44.534;18.678;2023-09-19T08:07:14;98780.53;;;24.55;58.61
80733;BME280;70130;44.534;18.678;2023-09-19T08:09:40;98787.09;;;24.81;57.22
80733;BME280;70130;44.534;18.678;2023-09-19T08:12:07;98791.94;;;24.73;56.81
80733;BME280;70130;44.534;18.678;2023-09-19T08:14:37;98782.00;;;24.79;56.12
80733;BME280;70130;44.534;18.678;2023-09-19T08:17:06;98781.38;;;24.91;55.70
80733;BME280;70130;44.534;18.678;2023-09-19T08:19:33;98784.75;;;24.99;53.53
80733;BME280;70130;44.534;18.678;2023-09-19T08:22:00;98790.44;;;25.08;52.51
80733;BME280;70130;44.534;18.678;2023-09-19T08:24:27;98791.81;;;25.16;53.17
80733;BME280;70130;44.534;18.678;2023-09-19T08:26:57;98794.28;;;25.30;53.00
80733;BME280;70130;44.534;18.678;2023-09-19T08:29:24;98791.59;;;25.27;52.47
80733;BME280;70130;44.534;18.678;2023-09-19T08:31:56;98792.22;;;25.34;53.06
80733;BME280;70130;44.534;18.678;2023-09-19T08:34:25;98799.75;;;25.47;53.39
80733;BME280;70130;44.534;18.678;2023-09-19T08:36:54;98795.50;;;25.46;53.34
80733;BME280;70130;44.534;18.678;2023-09-19T08:39:24;98795.69;;;25.55;52.81
80733;BME280;70130;44.534;18.678;2023-09-19T08:41:57;98787.94;;;25.50;52.79
80733;BME280;70130;44.534;18.678;2023-09-19T08:44:23;98787.72;;;25.60;51.15
80733;BME280;70130;44.534;18.678;2023-09-19T08:46:54;98781.50;;;25.89;50.57
80733;BME280;70130;44.534;18.678;2023-09-19T08:52:12;98774.53;;;26.00;50.40
80733;BME280;70130;44.534;18.678;2023-09-19T08:54:41;98780.00;;;26.16;49.80
80733;BME280;70130;44.534;18.678;2023-09-19T08:57:10;98783.00;;;26.38;49.00
80733;BME280;70130;44.534;18.678;2023-09-19T08:59:47;98780.13;;;26.42;48.45
80733;BME280;70130;44.534;18.678;2023-09-19T09:02:14;98777.72;;;26.44;47.85
80733;BME280;70130;44.534;18.678;2023-09-19T09:04:44;98782.25;;;26.50;47.40
80733;BME280;70130;44.534;18.678;2023-09-19T09:07:11;98775.66;;;26.60;47.17
80733;BME280;70130;44.534;18.678;2023-09-19T09:09:38;98771.91;;;26.54;48.15
80733;BME280;70130;44.534;18.678;2023-09-19T09:12:11;98773.59;;;26.64;47.73
80733;BME280;70130;44.534;18.678;2023-09-19T09:14:37;98772.19;;;26.73;47.66
80733;BME280;70130;44.534;18.678;2023-09-19T09:17:03;98766.69;;;26.73;47.41
80733;BME280;70130;44.534;18.678;2023-09-19T09:19:30;98764.88;;;27.20;43.85
80733;BME280;70130;44.534;18.678;2023-09-19T09:22:06;98765.88;;;27.26;43.62
80733;BME280;70130;44.534;18.678;2023-09-19T09:24:32;98764.88;;;27.20;43.27
80733;BME280;70130;44.534;18.678;2023-09-19T09:27:04;98750.66;;;27.09;44.02
80733;BME280;70130;44.534;18.678;2023-09-19T09:29:46;98758.03;;;26.99;44.56
80733;BME280;70130;44.534;18.678;2023-09-19T09:32:28;98749.91;;;27.09;44.00
80733;BME280;70130;44.534;18.678;2023-09-19T09:34:58;98744.41;;;27.09;44.35
80733;BME280;70130;44.534;18.678;2023-09-19T09:37:25;98753.97;;;27.29;44.37
80733;BME280;70130;44.534;18.678;2023-09-19T09:39:56;98739.84;;;27.40;43.79
80733;BME280;70130;44.534;18.678;2023-09-19T09:42:34;98743.81;;;27.39;44.05
80733;BME280;70130;44.534;18.678;2023-09-19T09:45:15;98736.97;;;27.43;42.80
80733;BME280;70130;44.534;18.678;2023-09-19T09:47:49;98743.91;;;27.73;42.63
80733;BME280;70130;44.534;18.678;2023-09-19T09:50:31;98737.88;;;27.66;41.89
80733;BME280;70130;44.534;18.678;2023-09-19T09:53:29;98741.78;;;27.90;41.21
80733;BME280;70130;44.534;18.678;2023-09-19T09:56:05;98738.00;;;27.97;40.30
80733;BME280;70130;44.534;18.678;2023-09-19T09:58:51;98740.16;;;28.14;39.84
80733;BME280;70130;44.534;18.678;2023-09-19T10:01:21;98735.75;;;28.17;40.08
80733;BME280;70130;44.534;18.678;2023-09-19T10:03:57;98734.28;;;28.25;39.08
80733;BME280;70130;44.534;18.678;2023-09-19T10:06:23;98743.00;;;28.23;39.42
80733;BME280;70130;44.534;18.678;2023-09-19T10:09:01;98744.94;;;28.36;38.96
80733;BME280;70130;44.534;18.678;2023-09-19T10:11:41;98745.19;;;28.28;38.41
80733;BME280;70130;44.534;18.678;2023-09-19T10:14:14;98739.78;;;28.25;37.87
80733;BME280;70130;44.534;18.678;2023-09-19T10:16:45;98731.44;;;28.16;37.84
80733;BME280;70130;44.534;18.678;2023-09-19T10:19:25;98733.16;;;28.22;37.79
80733;BME280;70130;44.534;18.678;2023-09-19T10:21:56;98721.81;;;28.42;37.35
80733;BME280;70130;44.534;18.678;2023-09-19T10:24:25;98717.91;;;28.30;37.53
80733;BME280;70130;44.534;18.678;2023-09-19T10:26:53;98710.84;;;28.29;37.90
80733;BME280;70130;44.534;18.678;2023-09-19T10:29:21;98699.16;;;28.47;37.97
80733;BME280;70130;44.534;18.678;2023-09-19T10:31:49;98713.53;;;28.42;38.31
80733;BME280;70130;44.534;18.678;2023-09-19T10:34:19;98713.97;;;28.62;37.33
80733;BME280;70130;44.534;18.678;2023-09-19T10:36:46;98716.22;;;28.55;37.74
80733;BME280;70130;44.534;18.678;2023-09-19T10:39:16;98713.63;;;28.51;37.93
80733;BME280;70130;44.534;18.678;2023-09-19T10:41:53;98706.25;;;28.57;38.08
80733;BME280;70130;44.534;18.678;2023-09-19T10:44:23;98702.56;;;28.73;37.84
80733;BME280;70130;44.534;18.678;2023-09-19T10:46:51;98704.44;;;28.76;37.63
80733;BME280;70130;44.534;18.678;2023-09-19T10:49:19;98702.72;;;28.79;37.39
80733;BME280;70130;44.534;18.678;2023-09-19T10:51:46;98705.94;;;28.77;37.91
80733;BME280;70130;44.534;18.678;2023-09-19T10:54:17;98702.09;;;28.74;37.20
80733;BME280;70130;44.534;18.678;2023-09-19T10:56:49;98708.13;;;28.82;36.72
80733;BME280;70130;44.534;18.678;2023-09-19T10:59:20;98713.97;;;28.84;36.11
80733;BME280;70130;44.534;18.678;2023-09-19T11:01:55;98700.59;;;28.83;36.11
80733;BME280;70130;44.534;18.678;2023-09-19T11:04:30;98697.41;;;28.84;35.98
80733;BME280;70130;44.534;18.678;2023-09-19T11:07:12;98705.56;;;28.97;35.84
80733;BME280;70130;44.534;18.678;2023-09-19T11:09:53;98706.94;;;28.61;36.85
80733;BME280;70130;44.534;18.678;2023-09-19T11:14:54;98683.94;;;28.43;38.42
80733;BME280;70130;44.534;18.678;2023-09-19T11:28:31;98725.56;;;27.32;46.26
80733;BME280;70130;44.534;18.678;2023-09-19T11:30:57;98741.91;;;26.73;48.10
80733;BME280;70130;44.534;18.678;2023-09-19T11:36:09;98755.50;;;26.51;49.59
80733;BME280;70130;44.534;18.678;2023-09-19T11:49:18;98807.91;;;25.34;52.38
80733;BME280;70130;44.534;18.678;2023-09-19T11:51:50;98816.91;;;24.99;54.62
80733;BME280;70130;44.534;18.678;2023-09-19T11:54:20;98792.56;;;24.81;55.64
80733;BME280;70130;44.534;18.678;2023-09-19T11:56:52;98785.31;;;24.71;56.31
80733;BME280;70130;44.534;18.678;2023-09-19T11:59:31;98787.28;;;24.31;58.64
80733;BME280;70130;44.534;18.678;2023-09-19T12:02:05;98767.03;;;24.44;58.31
80733;BME280;70130;44.534;18.678;2023-09-19T12:04:37;98779.63;;;24.42;59.63
80733;BME280;70130;44.534;18.678;2023-09-19T12:10:04;98781.81;;;24.50;59.97
80733;BME280;70130;44.534;18.678;2023-09-19T12:12:31;98787.50;;;24.40;60.03
80733;BME280;70130;44.534;18.678;2023-09-19T12:14:59;98793.84;;;24.57;60.13
80733;BME280;70130;44.534;18.678;2023-09-19T12:17:41;98786.44;;;24.34;61.12
80733;BME280;70130;44.534;18.678;2023-09-19T12:20:10;98781.72;;;24.54;60.94
80733;BME280;70130;44.534;18.678;2023-09-19T12:22:41;98785.25;;;24.55;61.17
80733;BME280;70130;44.534;18.678;2023-09-19T12:25:11;98796.09;;;24.42;62.01
80733;BME280;70130;44.534;18.678;2023-09-19T12:27:46;98814.66;;;24.54;61.55
80733;BME280;70130;44.534;18.678;2023-09-19T12:30:14;98823.03;;;24.47;61.71
80733;BME280;70130;44.534;18.678;2023-09-19T12:32:40;98820.53;;;24.33;62.91
80733;BME280;70130;44.534;18.678;2023-09-19T12:35:09;98819.91;;;24.45;62.19
80733;BME280;70130;44.534;18.678;2023-09-19T12:37:43;98816.78;;;24.46;62.51
80733;BME280;70130;44.534;18.678;2023-09-19T12:40:21;98807.19;;;24.55;62.24
80733;BME280;70130;44.534;18.678;2023-09-19T12:42:57;98807.97;;;24.35;62.51
80733;BME280;70130;44.534;18.678;2023-09-19T12:45:28;98796.84;;;24.42;62.31
80733;BME280;70130;44.534;18.678;2023-09-19T12:48:17;98795.72;;;24.60;61.76
80733;BME280;70130;44.534;18.678;2023-09-19T12:51:08;98797.06;;;24.71;61.59
80733;BME280;70130;44.534;18.678;2023-09-19T12:53:43;98812.97;;;24.60;61.64
80733;BME280;70130;44.534;18.678;2023-09-19T12:56:11;98818.38;;;24.44;62.06
80733;BME280;70130;44.534;18.678;2023-09-19T12:58:56;98820.78;;;24.19;62.29
80733;BME280;70130;44.534;18.678;2023-09-19T13:01:25;98821.97;;;24.18;62.72
80733;BME280;70130;44.534;18.678;2023-09-19T13:04:14;98820.88;;;24.35;63.87
80733;BME280;70130;44.534;18.678;2023-09-19T13:07:01;98818.78;;;24.62;63.86
80733;BME280;70130;44.534;18.678;2023-09-19T13:09:27;98830.97;;;24.61;64.20
80733;BME280;70130;44.534;18.678;2023-09-19T13:12:34;98835.75;;;24.77;63.08
80733;BME280;70130;44.534;18.678;2023-09-19T13:15:13;98835.84;;;25.13;61.28
80733;BME280;70130;44.534;18.678;2023-09-19T13:17:48;98828.50;;;25.26;60.44
80733;BME280;70130;44.534;18.678;2023-09-19T13:20:27;98822.06;;;25.32;60.31
80733;BME280;70130;44.534;18.678;2023-09-19T13:22:53;98816.47;;;25.20;59.08
80733;BME280;70130;44.534;18.678;2023-09-19T13:25:25;98824.03;;;25.32;59.29
80733;BME280;70130;44.534;18.678;2023-09-19T13:27:57;98831.78;;;25.37;57.46
80733;BME280;70130;44.534;18.678;2023-09-19T13:30:28;98835.28;;;25.90;56.80
80733;BME280;70130;44.534;18.678;2023-09-19T13:33:08;98849.72;;;25.77;57.07
80733;BME280;70130;44.534;18.678;2023-09-19T13:35:35;98853.41;;;25.35;57.37
80733;BME280;70130;44.534;18.678;2023-09-19T13:38:02;98864.41;;;25.35;57.83
80733;BME280;70130;44.534;18.678;2023-09-19T13:40:27;98858.06;;;25.74;57.00
80733;BME280;70130;44.534;18.678;2023-09-19T13:42:56;98857.00;;;26.33;55.69
80733;BME280;70130;44.534;18.678;2023-09-19T13:45:23;98850.72;;;26.48;54.11
80733;BME280;70130;44.534;18.678;2023-09-19T13:47:52;98837.38;;;26.76;53.40
80733;BME280;70130;44.534;18.678;2023-09-19T13:50:17;98839.59;;;26.81;53.71
80733;BME280;70130;44.534;18.678;2023-09-19T13:52:49;98814.56;;;27.04;53.48